EJU8146 LEPA-EGKK
Flight info
| Callsign | EJU8146 |
|---|---|
| Flight time | 1h 59m |
| Altitude | 36000 |
| Route | DRAGO DCT PAPOS DCT UMURE DCT XIKEN DCT KARES DCT ARBEK DCT REBUL DCT USKAR DCT MOPAS DCT GIROM DCT GONUP DCT MANAK DCT TIRAV DCT DIXAD DCT NTS DCT BAKUL DCT REN DCT UPALO DCT REVTU DCT ODREP UP88 VASUX |
| Aircraft | A319/M-SDE3FGHIRWY/LB1 |
Departure
| Time | 2026-05-03 20:32 |
|---|---|
| Airport | Palma de Mallorca Airport (LEPA) |
Arrival
| Time | 2026-05-03 22:31 |
|---|---|
| Airport | London Gatwick Airport (EGKK) |
| Time | Latitude | Longitude | Altitude | Speed | Heading |
|---|---|---|---|---|---|
| 2026-05-03 20:15 | 39.55009 | 2.72322 | 38 ft | 0 kts | 329° |
| 2026-05-03 20:16 | 39.54998 | 2.72331 | 38 ft | 4 kts | 327° |
| 2026-05-03 20:16 | 39.54976 | 2.72351 | 38 ft | 4 kts | 325° |
| 2026-05-03 20:16 | 39.54953 | 2.72368 | 38 ft | 4 kts | 347° |
| 2026-05-03 20:16 | 39.54938 | 2.72368 | 37 ft | 1 kts | 59° |
| 2026-05-03 20:17 | 39.54938 | 2.72367 | 37 ft | 0 kts | 59° |
| 2026-05-03 20:21 | 39.54943 | 2.72377 | 37 ft | 3 kts | 59° |
| 2026-05-03 20:21 | 39.54954 | 2.72400 | 38 ft | 3 kts | 59° |
| 2026-05-03 20:21 | 39.54967 | 2.72430 | 38 ft | 4 kts | 60° |
| 2026-05-03 20:22 | 39.54985 | 2.72466 | 38 ft | 6 kts | 58° |
| 2026-05-03 20:22 | 39.55008 | 2.72516 | 38 ft | 7 kts | 57° |
| 2026-05-03 20:22 | 39.55052 | 2.72539 | 38 ft | 8 kts | 350° |
| 2026-05-03 20:22 | 39.55104 | 2.72502 | 37 ft | 9 kts | 328° |
| 2026-05-03 20:23 | 39.55160 | 2.72481 | 38 ft | 9 kts | 13° |
| 2026-05-03 20:23 | 39.55201 | 2.72541 | 38 ft | 10 kts | 58° |
| 2026-05-03 20:23 | 39.55242 | 2.72628 | 38 ft | 13 kts | 59° |
| 2026-05-03 20:23 | 39.55296 | 2.72744 | 38 ft | 17 kts | 59° |
| 2026-05-03 20:24 | 39.55360 | 2.72877 | 38 ft | 17 kts | 58° |
| 2026-05-03 20:24 | 39.55426 | 2.73016 | 38 ft | 21 kts | 59° |
| 2026-05-03 20:24 | 39.55522 | 2.73223 | 38 ft | 27 kts | 59° |
| 2026-05-03 20:24 | 39.55613 | 2.73412 | 38 ft | 7 kts | 57° |
| 2026-05-03 20:25 | 39.55640 | 2.73468 | 38 ft | 9 kts | 58° |
| 2026-05-03 20:25 | 39.55688 | 2.73573 | 38 ft | 15 kts | 59° |
| 2026-05-03 20:25 | 39.55743 | 2.73688 | 38 ft | 16 kts | 58° |
| 2026-05-03 20:25 | 39.55801 | 2.73811 | 38 ft | 16 kts | 58° |
| 2026-05-03 20:26 | 39.55862 | 2.73938 | 38 ft | 17 kts | 58° |
| 2026-05-03 20:26 | 39.55923 | 2.74071 | 38 ft | 17 kts | 59° |
| 2026-05-03 20:26 | 39.55988 | 2.74205 | 38 ft | 18 kts | 59° |
| 2026-05-03 20:26 | 39.56050 | 2.74338 | 38 ft | 16 kts | 59° |
| 2026-05-03 20:27 | 39.56097 | 2.74429 | 38 ft | 6 kts | 47° |
| 2026-05-03 20:27 | 39.56108 | 2.74440 | 38 ft | 0 kts | 36° |
| 2026-05-03 20:28 | 39.56108 | 2.74441 | 38 ft | 0 kts | 36° |
| 2026-05-03 20:29 | 39.56112 | 2.74445 | 38 ft | 1 kts | 34° |
| 2026-05-03 20:29 | 39.56123 | 2.74451 | 38 ft | 2 kts | 24° |
| 2026-05-03 20:29 | 39.56140 | 2.74455 | 38 ft | 3 kts | 4° |
| 2026-05-03 20:29 | 39.56141 | 2.74455 | 38 ft | 0 kts | 3° |
| 2026-05-03 20:30 | 39.56144 | 2.74455 | 38 ft | 2 kts | 1° |
| 2026-05-03 20:30 | 39.56170 | 2.74449 | 38 ft | 5 kts | 336° |
| 2026-05-03 20:30 | 39.56204 | 2.74420 | 38 ft | 6 kts | 326° |
| 2026-05-03 20:31 | 39.56239 | 2.74381 | 38 ft | 8 kts | 309° |
| 2026-05-03 20:31 | 39.56245 | 2.74315 | 38 ft | 8 kts | 255° |
| 2026-05-03 20:31 | 39.56235 | 2.74284 | 38 ft | 0 kts | 241° |
| 2026-05-03 20:31 | 39.56235 | 2.74283 | 38 ft | 1 kts | 240° |
| 2026-05-03 20:32 | 39.56181 | 2.74164 | 38 ft | 45 kts | 239° |
| 2026-05-03 20:32 | 39.55878 | 2.73530 | 37 ft | 117 kts | 238° |
| 2026-05-03 20:32 | 39.55348 | 2.72397 | 58 ft | 171 kts | 239° |
| 2026-05-03 20:32 | 39.54737 | 2.71098 | 715 ft | 168 kts | 237° |
| 2026-05-03 20:33 | 39.54107 | 2.69826 | 1402 ft | 171 kts | 232° |
| 2026-05-03 20:33 | 39.53432 | 2.68500 | 1929 ft | 185 kts | 233° |
| 2026-05-03 20:33 | 39.52682 | 2.67031 | 2329 ft | 206 kts | 234° |
| 2026-05-03 20:33 | 39.51883 | 2.65458 | 3101 ft | 211 kts | 235° |
| 2026-05-03 20:34 | 39.51081 | 2.63874 | 3982 ft | 211 kts | 236° |
| 2026-05-03 20:34 | 39.50270 | 2.62281 | 4879 ft | 213 kts | 236° |
| 2026-05-03 20:34 | 39.49448 | 2.60674 | 5739 ft | 215 kts | 237° |
| 2026-05-03 20:34 | 39.48637 | 2.59085 | 6589 ft | 218 kts | 238° |
| 2026-05-03 20:35 | 39.48082 | 2.57132 | 6977 ft | 244 kts | 265° |
| 2026-05-03 20:35 | 39.48497 | 2.54950 | 7521 ft | 267 kts | 299° |
| 2026-05-03 20:35 | 39.49681 | 2.53044 | 8381 ft | 275 kts | 307° |
| 2026-05-03 20:35 | 39.50947 | 2.51175 | 9323 ft | 278 kts | 307° |
| 2026-05-03 20:36 | 39.52235 | 2.49295 | 10201 ft | 282 kts | 307° |
| 2026-05-03 20:36 | 39.53585 | 2.47310 | 10537 ft | 305 kts | 307° |
| 2026-05-03 20:36 | 39.55036 | 2.45165 | 10942 ft | 324 kts | 307° |
| 2026-05-03 20:36 | 39.56538 | 2.42940 | 11653 ft | 331 kts | 306° |
| 2026-05-03 20:37 | 39.58060 | 2.40687 | 12445 ft | 335 kts | 306° |
| 2026-05-03 20:37 | 39.59607 | 2.38396 | 13219 ft | 339 kts | 306° |
| 2026-05-03 20:37 | 39.61167 | 2.36080 | 13970 ft | 343 kts | 306° |
| 2026-05-03 20:37 | 39.62746 | 2.33734 | 14649 ft | 347 kts | 306° |
| 2026-05-03 20:38 | 39.64341 | 2.31359 | 15316 ft | 350 kts | 306° |
| 2026-05-03 20:38 | 39.65944 | 2.28970 | 15991 ft | 354 kts | 306° |
| 2026-05-03 20:38 | 39.67570 | 2.26545 | 16636 ft | 358 kts | 306° |
| 2026-05-03 20:38 | 39.69215 | 2.24086 | 17297 ft | 362 kts | 306° |
| 2026-05-03 20:39 | 39.70871 | 2.21610 | 17944 ft | 366 kts | 306° |
| 2026-05-03 20:39 | 39.72535 | 2.19121 | 18555 ft | 369 kts | 306° |
| 2026-05-03 20:39 | 39.74240 | 2.16571 | 19125 ft | 373 kts | 306° |
| 2026-05-03 20:39 | 39.75948 | 2.14013 | 19685 ft | 376 kts | 306° |
| 2026-05-03 20:40 | 39.77673 | 2.11424 | 20251 ft | 380 kts | 306° |
| 2026-05-03 20:40 | 39.79408 | 2.08819 | 20815 ft | 384 kts | 306° |
| 2026-05-03 20:40 | 39.81169 | 2.06177 | 21340 ft | 389 kts | 306° |
| 2026-05-03 20:40 | 39.82951 | 2.03503 | 21890 ft | 392 kts | 306° |
| 2026-05-03 20:41 | 39.84746 | 2.00806 | 22434 ft | 396 kts | 306° |
| 2026-05-03 20:41 | 39.86549 | 1.98090 | 22955 ft | 399 kts | 306° |
| 2026-05-03 20:42 | 39.91748 | 1.90251 | 23992 ft | 406 kts | 306° |
| 2026-05-03 20:42 | 39.93608 | 1.87442 | 24050 ft | 406 kts | 306° |
| 2026-05-03 20:42 | 39.95428 | 1.84685 | 24516 ft | 407 kts | 306° |
| 2026-05-03 20:42 | 39.97300 | 1.81847 | 24986 ft | 408 kts | 306° |
| 2026-05-03 20:43 | 39.99189 | 1.79131 | 25412 ft | 413 kts | 311° |
| 2026-05-03 20:43 | 40.01449 | 1.76757 | 25835 ft | 421 kts | 322° |
| 2026-05-03 20:43 | 40.04047 | 1.74907 | 26249 ft | 430 kts | 332° |
| 2026-05-03 20:43 | 40.06848 | 1.73460 | 26656 ft | 434 kts | 334° |
| 2026-05-03 20:44 | 40.09667 | 1.72023 | 27072 ft | 436 kts | 334° |
| 2026-05-03 20:44 | 40.12507 | 1.70571 | 27488 ft | 438 kts | 334° |
| 2026-05-03 20:44 | 40.15357 | 1.69109 | 27885 ft | 441 kts | 334° |
| 2026-05-03 20:44 | 40.18212 | 1.67637 | 28279 ft | 443 kts | 334° |
| 2026-05-03 20:45 | 40.21080 | 1.66158 | 28670 ft | 445 kts | 334° |
| 2026-05-03 20:45 | 40.23966 | 1.64671 | 29048 ft | 447 kts | 334° |
| 2026-05-03 20:45 | 40.26882 | 1.63170 | 29401 ft | 451 kts | 334° |
| 2026-05-03 20:45 | 40.29814 | 1.61662 | 29730 ft | 454 kts | 334° |
| 2026-05-03 20:46 | 40.32756 | 1.60146 | 30084 ft | 456 kts | 334° |
| 2026-05-03 20:46 | 40.35710 | 1.58620 | 30361 ft | 458 kts | 334° |
| 2026-05-03 20:46 | 40.38683 | 1.57076 | 30644 ft | 460 kts | 334° |
| 2026-05-03 20:46 | 40.41667 | 1.55523 | 30935 ft | 462 kts | 334° |
| 2026-05-03 20:47 | 40.44667 | 1.53962 | 31221 ft | 464 kts | 334° |
| 2026-05-03 20:47 | 40.47670 | 1.52408 | 31658 ft | 463 kts | 334° |
| 2026-05-03 20:47 | 40.50662 | 1.50866 | 32099 ft | 461 kts | 334° |
| 2026-05-03 20:47 | 40.53642 | 1.49325 | 32528 ft | 460 kts | 334° |
| 2026-05-03 20:48 | 40.56582 | 1.47795 | 32947 ft | 458 kts | 333° |
| 2026-05-03 20:48 | 40.59580 | 1.46228 | 33366 ft | 457 kts | 333° |
| 2026-05-03 20:48 | 40.62534 | 1.44684 | 33783 ft | 456 kts | 333° |
| 2026-05-03 20:48 | 40.65477 | 1.43146 | 34174 ft | 456 kts | 333° |
| 2026-05-03 20:49 | 40.68422 | 1.41611 | 34538 ft | 454 kts | 333° |
| 2026-05-03 20:49 | 40.71327 | 1.40099 | 34882 ft | 454 kts | 333° |
| 2026-05-03 20:49 | 40.74252 | 1.38574 | 34991 ft | 453 kts | 333° |
| 2026-05-03 20:50 | 40.80111 | 1.35507 | 35014 ft | 452 kts | 333° |
| 2026-05-03 20:50 | 40.85947 | 1.32442 | 35018 ft | 451 kts | 333° |
| 2026-05-03 20:51 | 40.91783 | 1.29370 | 35034 ft | 452 kts | 333° |
| 2026-05-03 20:51 | 40.97646 | 1.26278 | 35018 ft | 454 kts | 333° |
| 2026-05-03 20:52 | 41.03509 | 1.23182 | 35021 ft | 454 kts | 333° |
| 2026-05-03 20:52 | 41.09382 | 1.20083 | 35034 ft | 454 kts | 333° |
| 2026-05-03 20:53 | 41.15360 | 1.17320 | 35029 ft | 461 kts | 343° |
| 2026-05-03 20:53 | 41.21808 | 1.16405 | 35029 ft | 467 kts | 351° |
| 2026-05-03 20:54 | 41.28292 | 1.15736 | 35033 ft | 468 kts | 351° |
| 2026-05-03 20:54 | 41.38036 | 1.14696 | 35025 ft | 469 kts | 351° |
| 2026-05-03 20:55 | 41.44505 | 1.14013 | 35025 ft | 469 kts | 351° |
| 2026-05-03 20:55 | 41.51011 | 1.13342 | 35027 ft | 469 kts | 351° |
| 2026-05-03 20:56 | 41.57539 | 1.12655 | 35030 ft | 469 kts | 351° |
| 2026-05-03 20:56 | 41.64006 | 1.11966 | 35026 ft | 469 kts | 351° |
| 2026-05-03 20:57 | 41.70528 | 1.11275 | 35021 ft | 469 kts | 351° |
| 2026-05-03 20:57 | 41.76978 | 1.10589 | 35015 ft | 469 kts | 351° |
| 2026-05-03 20:58 | 41.83512 | 1.09885 | 35010 ft | 470 kts | 351° |
| 2026-05-03 20:58 | 41.90033 | 1.09193 | 35007 ft | 470 kts | 351° |
| 2026-05-03 20:59 | 41.96562 | 1.08500 | 35005 ft | 470 kts | 351° |
| 2026-05-03 20:59 | 42.03043 | 1.07803 | 35007 ft | 470 kts | 351° |
| 2026-05-03 21:00 | 42.08503 | 1.07214 | 35014 ft | 471 kts | 351° |
| 2026-05-03 21:00 | 42.16104 | 1.06397 | 35027 ft | 471 kts | 351° |
| 2026-05-03 21:01 | 42.22643 | 1.05693 | 35036 ft | 471 kts | 351° |
| 2026-05-03 21:01 | 42.29187 | 1.04986 | 35043 ft | 472 kts | 351° |
| 2026-05-03 21:02 | 42.35725 | 1.04285 | 35041 ft | 472 kts | 351° |
| 2026-05-03 21:02 | 42.42277 | 1.03576 | 35049 ft | 472 kts | 351° |
| 2026-05-03 21:03 | 42.48823 | 1.02865 | 35042 ft | 472 kts | 351° |
| 2026-05-03 21:03 | 42.55367 | 1.02150 | 35030 ft | 472 kts | 351° |
| 2026-05-03 21:04 | 42.61914 | 1.01441 | 35037 ft | 472 kts | 351° |
| 2026-05-03 21:04 | 42.68472 | 1.00716 | 35026 ft | 473 kts | 351° |
| 2026-05-03 21:05 | 42.75024 | 0.99990 | 35011 ft | 473 kts | 351° |
| 2026-05-03 21:05 | 42.81442 | 0.98380 | 34999 ft | 467 kts | 341° |
| 2026-05-03 21:06 | 42.87704 | 0.96203 | 34987 ft | 468 kts | 341° |
| 2026-05-03 21:06 | 42.94018 | 0.94029 | 34988 ft | 467 kts | 341° |
| 2026-05-03 21:07 | 43.00320 | 0.91859 | 34989 ft | 467 kts | 341° |
| 2026-05-03 21:07 | 43.06627 | 0.89673 | 34978 ft | 468 kts | 341° |
| 2026-05-03 21:08 | 43.12941 | 0.87471 | 34970 ft | 468 kts | 341° |
| 2026-05-03 21:08 | 43.19261 | 0.85272 | 34969 ft | 469 kts | 341° |
| 2026-05-03 21:09 | 43.25582 | 0.83068 | 34969 ft | 469 kts | 341° |
| 2026-05-03 21:09 | 43.31907 | 0.80865 | 34970 ft | 469 kts | 341° |
| 2026-05-03 21:10 | 43.38233 | 0.78660 | 34969 ft | 469 kts | 341° |
| 2026-05-03 21:10 | 43.44542 | 0.76444 | 34980 ft | 468 kts | 339° |
| 2026-05-03 21:11 | 43.50571 | 0.73272 | 34970 ft | 463 kts | 331° |
| 2026-05-03 21:11 | 43.56514 | 0.69769 | 34972 ft | 464 kts | 331° |
| 2026-05-03 21:12 | 43.62452 | 0.66274 | 34969 ft | 464 kts | 331° |
| 2026-05-03 21:12 | 43.68360 | 0.62777 | 34969 ft | 465 kts | 330° |
| 2026-05-03 21:13 | 43.74315 | 0.59242 | 34972 ft | 465 kts | 330° |
| 2026-05-03 21:13 | 43.80263 | 0.55704 | 34972 ft | 465 kts | 331° |
| 2026-05-03 21:14 | 43.86219 | 0.52163 | 34967 ft | 466 kts | 331° |
| 2026-05-03 21:14 | 43.92192 | 0.48611 | 34972 ft | 467 kts | 331° |
| 2026-05-03 21:15 | 43.98164 | 0.45047 | 34974 ft | 467 kts | 331° |
| 2026-05-03 21:15 | 44.03131 | 0.42077 | 34988 ft | 467 kts | 331° |
| 2026-05-03 21:16 | 44.10079 | 0.37913 | 34997 ft | 468 kts | 331° |
| 2026-05-03 21:16 | 44.16046 | 0.34327 | 34974 ft | 467 kts | 330° |
| 2026-05-03 21:17 | 44.21048 | 0.31311 | 34974 ft | 467 kts | 330° |
| 2026-05-03 21:17 | 44.27000 | 0.27712 | 34970 ft | 465 kts | 330° |
| 2026-05-03 21:18 | 44.32904 | 0.24145 | 34973 ft | 465 kts | 330° |
| 2026-05-03 21:18 | 44.38852 | 0.20547 | 34978 ft | 465 kts | 330° |
| 2026-05-03 21:19 | 44.44785 | 0.16944 | 34977 ft | 465 kts | 330° |
| 2026-05-03 21:19 | 44.50723 | 0.13325 | 34975 ft | 465 kts | 330° |
| 2026-05-03 21:20 | 44.56651 | 0.09701 | 34972 ft | 465 kts | 330° |
| 2026-05-03 21:20 | 44.59701 | 0.07834 | 34972 ft | 465 kts | 330° |
| 2026-05-03 21:21 | 44.65639 | 0.04202 | 34973 ft | 465 kts | 330° |
| 2026-05-03 21:21 | 44.71572 | 0.00559 | 34983 ft | 466 kts | 330° |
| 2026-05-03 21:22 | 44.77521 | -0.03105 | 34974 ft | 468 kts | 330° |
| 2026-05-03 21:22 | 44.83488 | -0.06798 | 34978 ft | 469 kts | 330° |
| 2026-05-03 21:23 | 44.89470 | -0.10497 | 34977 ft | 469 kts | 330° |
| 2026-05-03 21:23 | 44.95445 | -0.14192 | 34977 ft | 469 kts | 330° |
| 2026-05-03 21:24 | 45.01433 | -0.17900 | 34982 ft | 471 kts | 330° |
| 2026-05-03 21:24 | 45.07444 | -0.21634 | 34978 ft | 472 kts | 330° |
| 2026-05-03 21:25 | 45.13464 | -0.25390 | 34980 ft | 472 kts | 330° |
| 2026-05-03 21:25 | 45.19481 | -0.29151 | 34994 ft | 473 kts | 330° |
| 2026-05-03 21:26 | 45.25487 | -0.32917 | 34978 ft | 474 kts | 330° |
| 2026-05-03 21:26 | 45.31506 | -0.36699 | 34978 ft | 474 kts | 330° |
| 2026-05-03 21:27 | 45.37538 | -0.40499 | 34979 ft | 474 kts | 330° |
| 2026-05-03 21:27 | 45.43563 | -0.44303 | 34982 ft | 474 kts | 330° |
| 2026-05-03 21:28 | 45.49575 | -0.48106 | 34969 ft | 474 kts | 330° |
| 2026-05-03 21:28 | 45.55605 | -0.51919 | 34973 ft | 474 kts | 329° |
| 2026-05-03 21:29 | 45.61628 | -0.55749 | 34970 ft | 474 kts | 329° |
| 2026-05-03 21:29 | 45.67603 | -0.59556 | 34976 ft | 473 kts | 329° |
| 2026-05-03 21:30 | 45.73620 | -0.63411 | 34967 ft | 473 kts | 329° |
| 2026-05-03 21:30 | 45.79639 | -0.67252 | 34972 ft | 474 kts | 329° |
| 2026-05-03 21:31 | 45.85653 | -0.71104 | 34970 ft | 473 kts | 329° |
| 2026-05-03 21:31 | 45.91662 | -0.74969 | 34968 ft | 473 kts | 329° |
| 2026-05-03 21:32 | 45.97676 | -0.78848 | 34984 ft | 473 kts | 329° |
| 2026-05-03 21:32 | 46.03677 | -0.82726 | 34967 ft | 473 kts | 329° |
| 2026-05-03 21:33 | 46.09696 | -0.86627 | 34963 ft | 476 kts | 329° |
| 2026-05-03 21:33 | 46.15719 | -0.90536 | 34964 ft | 474 kts | 329° |
| 2026-05-03 21:34 | 46.21575 | -0.94696 | 34971 ft | 466 kts | 320° |
| 2026-05-03 21:34 | 46.26688 | -1.00372 | 34972 ft | 460 kts | 314° |
| 2026-05-03 21:35 | 46.31649 | -1.06120 | 34971 ft | 460 kts | 314° |
| 2026-05-03 21:35 | 46.36672 | -1.11945 | 34981 ft | 460 kts | 314° |
| 2026-05-03 21:36 | 46.41629 | -1.17719 | 34975 ft | 460 kts | 314° |
| 2026-05-03 21:36 | 46.46628 | -1.23548 | 34976 ft | 463 kts | 314° |
| 2026-05-03 21:37 | 46.51659 | -1.29432 | 34991 ft | 464 kts | 314° |
| 2026-05-03 21:37 | 46.56685 | -1.35314 | 35015 ft | 464 kts | 314° |
| 2026-05-03 21:38 | 46.62077 | -1.40646 | 35002 ft | 478 kts | 327° |
| 2026-05-03 21:38 | 46.68079 | -1.44872 | 35002 ft | 479 kts | 327° |
| 2026-05-03 21:39 | 46.74082 | -1.49119 | 35003 ft | 479 kts | 327° |
| 2026-05-03 21:39 | 46.80083 | -1.53392 | 34995 ft | 479 kts | 327° |
| 2026-05-03 21:40 | 46.86152 | -1.57333 | 34987 ft | 487 kts | 337° |
| 2026-05-03 21:40 | 46.92948 | -1.58951 | 34983 ft | 497 kts | 352° |
| 2026-05-03 21:41 | 46.99811 | -1.59613 | 34974 ft | 497 kts | 352° |
| 2026-05-03 21:41 | 47.06720 | -1.60331 | 34969 ft | 497 kts | 351° |
| 2026-05-03 21:42 | 47.13628 | -1.61052 | 34975 ft | 497 kts | 351° |
| 2026-05-03 21:42 | 47.20535 | -1.61804 | 34974 ft | 497 kts | 351° |
| 2026-05-03 21:43 | 47.27411 | -1.62742 | 34975 ft | 496 kts | 349° |
| 2026-05-03 21:43 | 47.34244 | -1.63745 | 34973 ft | 496 kts | 349° |
| 2026-05-03 21:44 | 47.41115 | -1.64725 | 34969 ft | 495 kts | 350° |
| 2026-05-03 21:44 | 47.47979 | -1.65695 | 34971 ft | 495 kts | 350° |
| 2026-05-03 21:45 | 47.54839 | -1.66660 | 34968 ft | 495 kts | 350° |
| 2026-05-03 21:45 | 47.61697 | -1.67642 | 34986 ft | 494 kts | 350° |
| 2026-05-03 21:46 | 47.68514 | -1.68621 | 34965 ft | 492 kts | 350° |
| 2026-05-03 21:46 | 47.75326 | -1.69602 | 34978 ft | 491 kts | 350° |
| 2026-05-03 21:47 | 47.82139 | -1.70583 | 34968 ft | 492 kts | 351° |
| 2026-05-03 21:47 | 47.88958 | -1.71562 | 34973 ft | 492 kts | 351° |
| 2026-05-03 21:48 | 47.95768 | -1.72553 | 34974 ft | 492 kts | 351° |
| 2026-05-03 21:48 | 48.02576 | -1.73542 | 34976 ft | 492 kts | 351° |
| 2026-05-03 21:49 | 48.09420 | -1.74210 | 34976 ft | 494 kts | 356° |
| 2026-05-03 21:49 | 48.16263 | -1.74293 | 34975 ft | 494 kts | 356° |
| 2026-05-03 21:50 | 48.23145 | -1.74370 | 34979 ft | 495 kts | 357° |
| 2026-05-03 21:50 | 48.30023 | -1.74450 | 34972 ft | 495 kts | 357° |
| 2026-05-03 21:51 | 48.36922 | -1.74540 | 34971 ft | 495 kts | 357° |
| 2026-05-03 21:51 | 48.43817 | -1.74621 | 34976 ft | 495 kts | 357° |
| 2026-05-03 21:52 | 48.50703 | -1.74699 | 34965 ft | 495 kts | 357° |
| 2026-05-03 21:52 | 48.57597 | -1.74785 | 34964 ft | 495 kts | 357° |
| 2026-05-03 21:53 | 48.64489 | -1.74873 | 34975 ft | 495 kts | 357° |
| 2026-05-03 21:53 | 48.71375 | -1.74955 | 34964 ft | 494 kts | 357° |
| 2026-05-03 21:54 | 48.78256 | -1.75035 | 34964 ft | 494 kts | 357° |
| 2026-05-03 21:54 | 48.85094 | -1.75119 | 34964 ft | 494 kts | 356° |
| 2026-05-03 21:55 | 48.91967 | -1.75210 | 34945 ft | 495 kts | 357° |
| 2026-05-03 21:55 | 48.98884 | -1.75044 | 34961 ft | 497 kts | 359° |
| 2026-05-03 21:56 | 49.05764 | -1.74675 | 34964 ft | 497 kts | 359° |
| 2026-05-03 21:56 | 49.12670 | -1.74337 | 34964 ft | 494 kts | 359° |
| 2026-05-03 21:57 | 49.19546 | -1.74072 | 34961 ft | 494 kts | 358° |
| 2026-05-03 21:57 | 49.26363 | -1.73847 | 34961 ft | 493 kts | 358° |
| 2026-05-03 21:58 | 49.29725 | -1.73733 | 34298 ft | 487 kts | 1° |
| 2026-05-03 21:58 | 49.33044 | -1.73612 | 35210 ft | 483 kts | 359° |
| 2026-05-03 21:58 | 49.36423 | -1.73478 | 35003 ft | 487 kts | 359° |
| 2026-05-03 21:58 | 49.39822 | -1.73338 | 34955 ft | 489 kts | 359° |
| 2026-05-03 21:59 | 49.46652 | -1.73061 | 34967 ft | 491 kts | 359° |
| 2026-05-03 21:59 | 49.53493 | -1.72796 | 34970 ft | 490 kts | 359° |
| 2026-05-03 22:00 | 49.60288 | -1.71918 | 34972 ft | 493 kts | 11° |
| 2026-05-03 22:00 | 49.66809 | -1.68676 | 34741 ft | 493 kts | 19° |
| 2026-05-03 22:01 | 49.68953 | -1.67486 | 34585 ft | 493 kts | 19° |
| 2026-05-03 22:01 | 49.72180 | -1.65691 | 34355 ft | 494 kts | 19° |
| 2026-05-03 22:01 | 49.75429 | -1.63885 | 34131 ft | 493 kts | 19° |
| 2026-05-03 22:01 | 49.79701 | -1.61517 | 33807 ft | 492 kts | 19° |
| 2026-05-03 22:02 | 49.81883 | -1.60309 | 33595 ft | 492 kts | 19° |
| 2026-05-03 22:02 | 49.85071 | -1.58545 | 33343 ft | 493 kts | 19° |
| 2026-05-03 22:02 | 49.88300 | -1.56754 | 32558 ft | 495 kts | 19° |
| 2026-05-03 22:02 | 49.91571 | -1.54933 | 31210 ft | 506 kts | 19° |
| 2026-05-03 22:03 | 49.94885 | -1.53080 | 30567 ft | 499 kts | 19° |
| 2026-05-03 22:03 | 49.98116 | -1.51268 | 29876 ft | 490 kts | 19° |
| 2026-05-03 22:03 | 50.01305 | -1.49500 | 29144 ft | 480 kts | 18° |
| 2026-05-03 22:03 | 50.04433 | -1.47880 | 28546 ft | 468 kts | 17° |
| 2026-05-03 22:04 | 50.07497 | -1.46388 | 27934 ft | 458 kts | 15° |
| 2026-05-03 22:04 | 50.10520 | -1.44963 | 27337 ft | 449 kts | 15° |
| 2026-05-03 22:04 | 50.13492 | -1.43571 | 26757 ft | 441 kts | 15° |
| 2026-05-03 22:04 | 50.16405 | -1.42193 | 26186 ft | 434 kts | 15° |
| 2026-05-03 22:05 | 50.19271 | -1.40816 | 25630 ft | 428 kts | 16° |
| 2026-05-03 22:05 | 50.22091 | -1.39441 | 25072 ft | 422 kts | 16° |
| 2026-05-03 22:05 | 50.24876 | -1.38066 | 24539 ft | 417 kts | 16° |
| 2026-05-03 22:05 | 50.27634 | -1.36698 | 24017 ft | 412 kts | 16° |
| 2026-05-03 22:06 | 50.30346 | -1.35350 | 23510 ft | 406 kts | 16° |
| 2026-05-03 22:06 | 50.33021 | -1.34024 | 22982 ft | 400 kts | 16° |
| 2026-05-03 22:06 | 50.35654 | -1.32722 | 22522 ft | 395 kts | 16° |
| 2026-05-03 22:06 | 50.38265 | -1.31432 | 22071 ft | 392 kts | 16° |
| 2026-05-03 22:07 | 50.40863 | -1.30147 | 21623 ft | 389 kts | 16° |
| 2026-05-03 22:07 | 50.43437 | -1.28871 | 21174 ft | 387 kts | 16° |
| 2026-05-03 22:07 | 50.45996 | -1.27602 | 20725 ft | 384 kts | 16° |
| 2026-05-03 22:07 | 50.48513 | -1.26253 | 20278 ft | 382 kts | 22° |
| 2026-05-03 22:08 | 50.50870 | -1.24353 | 19827 ft | 379 kts | 32° |
| 2026-05-03 22:08 | 50.52966 | -1.21940 | 19375 ft | 377 kts | 40° |
| 2026-05-03 22:08 | 50.54966 | -1.19297 | 18905 ft | 375 kts | 40° |
| 2026-05-03 22:08 | 50.56968 | -1.16660 | 18440 ft | 374 kts | 40° |
| 2026-05-03 22:09 | 50.58960 | -1.14039 | 17926 ft | 373 kts | 40° |
| 2026-05-03 22:09 | 50.60948 | -1.11421 | 17443 ft | 370 kts | 40° |
| 2026-05-03 22:09 | 50.62916 | -1.08830 | 16969 ft | 368 kts | 40° |
| 2026-05-03 22:10 | 50.66656 | -1.03432 | 16025 ft | 362 kts | 51° |
| 2026-05-03 22:10 | 50.68243 | -1.00358 | 15570 ft | 360 kts | 52° |
| 2026-05-03 22:10 | 50.69825 | -0.97304 | 15103 ft | 359 kts | 52° |
| 2026-05-03 22:10 | 50.71406 | -0.94264 | 14640 ft | 357 kts | 52° |
| 2026-05-03 22:11 | 50.72978 | -0.91242 | 14174 ft | 355 kts | 52° |
| 2026-05-03 22:11 | 50.74542 | -0.88230 | 13706 ft | 354 kts | 52° |
| 2026-05-03 22:11 | 50.76089 | -0.85238 | 13337 ft | 348 kts | 52° |
| 2026-05-03 22:11 | 50.77592 | -0.82332 | 13199 ft | 336 kts | 52° |
| 2026-05-03 22:12 | 50.79050 | -0.79514 | 13056 ft | 325 kts | 52° |
| 2026-05-03 22:12 | 50.80371 | -0.76692 | 12921 ft | 315 kts | 62° |
| 2026-05-03 22:12 | 50.81258 | -0.73557 | 12943 ft | 312 kts | 75° |
| 2026-05-03 22:12 | 50.81726 | -0.70220 | 12949 ft | 310 kts | 82° |
| 2026-05-03 22:13 | 50.82111 | -0.66870 | 12942 ft | 310 kts | 82° |
| 2026-05-03 22:13 | 50.82504 | -0.63507 | 12941 ft | 310 kts | 82° |
| 2026-05-03 22:13 | 50.82891 | -0.60198 | 12947 ft | 310 kts | 82° |
| 2026-05-03 22:13 | 50.83287 | -0.56806 | 12940 ft | 310 kts | 82° |
| 2026-05-03 22:14 | 50.83677 | -0.53446 | 12947 ft | 310 kts | 82° |
| 2026-05-03 22:14 | 50.84065 | -0.50093 | 12934 ft | 310 kts | 82° |
| 2026-05-03 22:14 | 50.84453 | -0.46739 | 12935 ft | 310 kts | 82° |
| 2026-05-03 22:14 | 50.84833 | -0.43429 | 12947 ft | 310 kts | 82° |
| 2026-05-03 22:15 | 50.85217 | -0.40065 | 12943 ft | 310 kts | 82° |
| 2026-05-03 22:15 | 50.85597 | -0.36711 | 12661 ft | 311 kts | 83° |
| 2026-05-03 22:15 | 50.85770 | -0.33245 | 11751 ft | 324 kts | 90° |
| 2026-05-03 22:15 | 50.85814 | -0.29606 | 10946 ft | 335 kts | 91° |
| 2026-05-03 22:16 | 50.85844 | -0.25919 | 10394 ft | 335 kts | 91° |
| 2026-05-03 22:16 | 50.85870 | -0.22287 | 10209 ft | 323 kts | 91° |
| 2026-05-03 22:16 | 50.85896 | -0.18797 | 10080 ft | 311 kts | 91° |
| 2026-05-03 22:16 | 50.85922 | -0.15429 | 9940 ft | 300 kts | 91° |
| 2026-05-03 22:17 | 50.85948 | -0.12184 | 9790 ft | 290 kts | 91° |
| 2026-05-03 22:17 | 50.85975 | -0.09035 | 9648 ft | 280 kts | 91° |
| 2026-05-03 22:17 | 50.86002 | -0.06007 | 9511 ft | 270 kts | 91° |
| 2026-05-03 22:17 | 50.86030 | -0.03127 | 9357 ft | 261 kts | 91° |
| 2026-05-03 22:18 | 50.86056 | -0.00273 | 9083 ft | 258 kts | 91° |
| 2026-05-03 22:18 | 50.86071 | 0.02558 | 8711 ft | 258 kts | 91° |
| 2026-05-03 22:18 | 50.86100 | 0.05403 | 8322 ft | 259 kts | 88° |
| 2026-05-03 22:18 | 50.86470 | 0.08188 | 7976 ft | 258 kts | 70° |
| 2026-05-03 22:19 | 50.87245 | 0.10710 | 7941 ft | 255 kts | 61° |
| 2026-05-03 22:19 | 50.88362 | 0.12882 | 7948 ft | 256 kts | 43° |
| 2026-05-03 22:19 | 50.89677 | 0.14784 | 7952 ft | 256 kts | 41° |
| 2026-05-03 22:19 | 50.90930 | 0.16545 | 7858 ft | 256 kts | 41° |
| 2026-05-03 22:20 | 50.92260 | 0.18409 | 8023 ft | 256 kts | 41° |
| 2026-05-03 22:20 | 50.93594 | 0.20276 | 7980 ft | 255 kts | 41° |
| 2026-05-03 22:20 | 50.94923 | 0.22130 | 7892 ft | 254 kts | 41° |
| 2026-05-03 22:20 | 50.96253 | 0.23982 | 7540 ft | 253 kts | 41° |
| 2026-05-03 22:21 | 50.97573 | 0.25819 | 7206 ft | 252 kts | 41° |
| 2026-05-03 22:21 | 50.98886 | 0.27645 | 6867 ft | 250 kts | 41° |
| 2026-05-03 22:21 | 51.00197 | 0.29467 | 6545 ft | 249 kts | 41° |
| 2026-05-03 22:21 | 51.01497 | 0.31271 | 6214 ft | 248 kts | 41° |
| 2026-05-03 22:22 | 51.02794 | 0.33045 | 6058 ft | 246 kts | 37° |
| 2026-05-03 22:22 | 51.04351 | 0.34099 | 6073 ft | 246 kts | 5° |
| 2026-05-03 22:22 | 51.06066 | 0.34033 | 5848 ft | 249 kts | 353° |
| 2026-05-03 22:22 | 51.07777 | 0.33714 | 5489 ft | 247 kts | 352° |
| 2026-05-03 22:23 | 51.09475 | 0.33364 | 5145 ft | 245 kts | 351° |
| 2026-05-03 22:23 | 51.11151 | 0.33009 | 4797 ft | 241 kts | 351° |
| 2026-05-03 22:23 | 51.12801 | 0.32653 | 4435 ft | 238 kts | 351° |
| 2026-05-03 22:23 | 51.14439 | 0.32300 | 4130 ft | 235 kts | 352° |
| 2026-05-03 22:24 | 51.16060 | 0.31950 | 4087 ft | 236 kts | 351° |
| 2026-05-03 22:24 | 51.17624 | 0.31231 | 4089 ft | 235 kts | 327° |
| 2026-05-03 22:24 | 51.18729 | 0.29373 | 4092 ft | 233 kts | 297° |
| 2026-05-03 22:24 | 51.19422 | 0.27053 | 4087 ft | 232 kts | 292° |
| 2026-05-03 22:25 | 51.20038 | 0.24677 | 4081 ft | 232 kts | 287° |
| 2026-05-03 22:25 | 51.20289 | 0.22160 | 4074 ft | 230 kts | 268° |
| 2026-05-03 22:25 | 51.20058 | 0.19664 | 4066 ft | 222 kts | 256° |
| 2026-05-03 22:25 | 51.19753 | 0.17382 | 4067 ft | 205 kts | 257° |
| 2026-05-03 22:26 | 51.19471 | 0.15264 | 4065 ft | 183 kts | 257° |
| 2026-05-03 22:26 | 51.19222 | 0.13404 | 4018 ft | 166 kts | 257° |
| 2026-05-03 22:26 | 51.18987 | 0.11658 | 3871 ft | 157 kts | 256° |
| 2026-05-03 22:26 | 51.18763 | 0.09996 | 3688 ft | 150 kts | 256° |
| 2026-05-03 22:27 | 51.18545 | 0.08378 | 3496 ft | 148 kts | 256° |
| 2026-05-03 22:27 | 51.18328 | 0.06773 | 3299 ft | 148 kts | 257° |
| 2026-05-03 22:27 | 51.18112 | 0.05177 | 3098 ft | 147 kts | 257° |
| 2026-05-03 22:27 | 51.17898 | 0.03592 | 2889 ft | 146 kts | 257° |
| 2026-05-03 22:28 | 51.17683 | 0.02003 | 2697 ft | 146 kts | 257° |
| 2026-05-03 22:28 | 51.17468 | 0.00423 | 2497 ft | 145 kts | 257° |
| 2026-05-03 22:28 | 51.17254 | -0.01154 | 2277 ft | 146 kts | 257° |
| 2026-05-03 22:28 | 51.17041 | -0.02727 | 2087 ft | 146 kts | 257° |
| 2026-05-03 22:29 | 51.16826 | -0.04306 | 1885 ft | 145 kts | 257° |
| 2026-05-03 22:29 | 51.16613 | -0.05875 | 1689 ft | 144 kts | 257° |
| 2026-05-03 22:29 | 51.16400 | -0.07433 | 1492 ft | 144 kts | 257° |
| 2026-05-03 22:29 | 51.16191 | -0.08969 | 1300 ft | 143 kts | 257° |
| 2026-05-03 22:30 | 51.15979 | -0.10523 | 1100 ft | 143 kts | 257° |
| 2026-05-03 22:30 | 51.15771 | -0.12073 | 888 ft | 143 kts | 257° |
| 2026-05-03 22:30 | 51.15559 | -0.13630 | 666 ft | 143 kts | 256° |
| 2026-05-03 22:30 | 51.15340 | -0.15170 | 513 ft | 144 kts | 257° |
| 2026-05-03 22:31 | 51.15136 | -0.16727 | 278 ft | 143 kts | 257° |
| 2026-05-03 22:31 | 51.14926 | -0.18244 | 214 ft | 137 kts | 256° |
| 2026-05-03 22:31 | 51.14749 | -0.19492 | 213 ft | 75 kts | 258° |
| 2026-05-03 22:31 | 51.14700 | -0.19990 | 208 ft | 28 kts | 276° |
| 2026-05-03 22:32 | 51.14738 | -0.20241 | 207 ft | 21 kts | 282° |
| 2026-05-03 22:32 | 51.14754 | -0.20350 | 210 ft | 5 kts | 282° |
| 2026-05-03 22:32 | 51.14754 | -0.20353 | 211 ft | 0 kts | 282° |
| 2026-05-03 22:32 | 51.14755 | -0.20357 | 212 ft | 1 kts | 282° |
| 2026-05-03 22:33 | 51.14757 | -0.20378 | 207 ft | 3 kts | 282° |
| 2026-05-03 22:33 | 51.14760 | -0.20399 | 207 ft | 1 kts | 282° |
| 2026-05-03 22:33 | 51.14767 | -0.20451 | 205 ft | 9 kts | 282° |
| 2026-05-03 22:33 | 51.14782 | -0.20562 | 205 ft | 11 kts | 283° |
| 2026-05-03 22:34 | 51.14818 | -0.20647 | 208 ft | 10 kts | 336° |
| 2026-05-03 22:34 | 51.14872 | -0.20604 | 208 ft | 10 kts | 69° |
| 2026-05-03 22:34 | 51.14889 | -0.20491 | 213 ft | 11 kts | 77° |
| 2026-05-03 22:34 | 51.14907 | -0.20366 | 207 ft | 12 kts | 77° |
| 2026-05-03 22:35 | 51.14925 | -0.20229 | 205 ft | 13 kts | 79° |
| 2026-05-03 22:35 | 51.14945 | -0.20081 | 213 ft | 14 kts | 78° |
| 2026-05-03 22:35 | 51.14965 | -0.19939 | 205 ft | 12 kts | 77° |
| 2026-05-03 22:35 | 51.14982 | -0.19820 | 208 ft | 11 kts | 77° |
| 2026-05-03 22:36 | 51.14998 | -0.19701 | 205 ft | 12 kts | 78° |
| 2026-05-03 22:36 | 51.15016 | -0.19573 | 213 ft | 12 kts | 77° |
| 2026-05-03 22:36 | 51.15036 | -0.19434 | 205 ft | 13 kts | 77° |
| 2026-05-03 22:36 | 51.15058 | -0.19283 | 214 ft | 15 kts | 77° |
| 2026-05-03 22:37 | 51.15078 | -0.19120 | 205 ft | 16 kts | 79° |
| 2026-05-03 22:37 | 51.15102 | -0.18944 | 215 ft | 16 kts | 77° |
| 2026-05-03 22:37 | 51.15109 | -0.18811 | 204 ft | 8 kts | 90° |
| 2026-05-03 22:37 | 51.15109 | -0.18793 | 204 ft | 0 kts | 86° |
| 2026-05-03 22:38 | 51.15110 | -0.18789 | 204 ft | 1 kts | 78° |
| 2026-05-03 22:38 | 51.15115 | -0.18769 | 209 ft | 2 kts | 68° |
| 2026-05-03 22:38 | 51.15117 | -0.18763 | 205 ft | 0 kts | 66° |
| 2026-05-03 22:38 | 51.15125 | -0.18733 | 208 ft | 8 kts | 66° |
| 2026-05-03 22:39 | 51.15144 | -0.18640 | 212 ft | 9 kts | 78° |
| 2026-05-03 22:39 | 51.15158 | -0.18532 | 205 ft | 10 kts | 78° |
| 2026-05-03 22:39 | 51.15175 | -0.18415 | 215 ft | 11 kts | 77° |
| 2026-05-03 22:39 | 51.15189 | -0.18286 | 211 ft | 12 kts | 86° |
| 2026-05-03 22:40 | 51.15206 | -0.18153 | 213 ft | 8 kts | 77° |
| 2026-05-03 22:40 | 51.15210 | -0.18120 | 205 ft | 2 kts | 78° |
| 2026-05-03 22:40 | 51.15213 | -0.18103 | 205 ft | 2 kts | 77° |
| 2026-05-03 22:40 | 51.15218 | -0.18096 | 215 ft | 0 kts | 30° |
| 2026-05-03 22:41 | 51.15250 | -0.18100 | 208 ft | 9 kts | 349° |
| 2026-05-03 22:41 | 51.15314 | -0.18124 | 207 ft | 10 kts | 346° |
| 2026-05-03 22:41 | 51.15386 | -0.18147 | 207 ft | 11 kts | 347° |
| 2026-05-03 22:41 | 51.15446 | -0.18169 | 208 ft | 9 kts | 346° |
| 2026-05-03 22:42 | 51.15516 | -0.18204 | 205 ft | 12 kts | 346° |
| 2026-05-03 22:42 | 51.15604 | -0.18234 | 208 ft | 13 kts | 348° |
| 2026-05-03 22:42 | 51.15672 | -0.18194 | 208 ft | 12 kts | 72° |
| 2026-05-03 22:42 | 51.15687 | -0.18056 | 205 ft | 14 kts | 80° |
| 2026-05-03 22:43 | 51.15712 | -0.17879 | 209 ft | 18 kts | 76° |
| 2026-05-03 22:43 | 51.15739 | -0.17679 | 210 ft | 16 kts | 79° |
| 2026-05-03 22:43 | 51.15755 | -0.17558 | 209 ft | 17 kts | 77° |
| 2026-05-03 22:43 | 51.15777 | -0.17401 | 208 ft | 11 kts | 77° |
| 2026-05-03 22:44 | 51.15724 | -0.17756 | 205 ft | 1 kts | 76° |
| 2026-05-03 22:44 | 51.15697 | -0.17923 | 207 ft | 1 kts | 75° |
| 2026-05-03 22:44 | 51.15704 | -0.17893 | 210 ft | 6 kts | 69° |
| 2026-05-03 22:44 | 51.15706 | -0.17824 | 205 ft | 7 kts | 115° |
| 2026-05-03 22:45 | 51.15668 | -0.17800 | 207 ft | 6 kts | 166° |
| 2026-05-03 22:45 | 51.15656 | -0.17795 | 205 ft | 0 kts | 166° |